sensor_id;sensor_type;location;lat;lon;timestamp;temperature;humidity
65824;SHT31;52585;47.566;19.056;2023-04-03T00:01:28;8.40;61.67
65824;SHT31;52585;47.566;19.056;2023-04-03T00:03:54;8.38;61.63
65824;SHT31;52585;47.566;19.056;2023-04-03T00:06:20;8.33;61.69
65824;SHT31;52585;47.566;19.056;2023-04-03T00:08:47;8.31;61.73
65824;SHT31;52585;47.566;19.056;2023-04-03T00:11:13;8.30;61.81
65824;SHT31;52585;47.566;19.056;2023-04-03T00:13:40;8.30;61.82
65824;SHT31;52585;47.566;19.056;2023-04-03T00:16:07;8.31;61.74
65824;SHT31;52585;47.566;19.056;2023-04-03T00:18:34;8.30;61.70
65824;SHT31;52585;47.566;19.056;2023-04-03T00:21:00;8.29;61.70
65824;SHT31;52585;47.566;19.056;2023-04-03T00:23:39;8.29;61.70
65824;SHT31;52585;47.566;19.056;2023-04-03T00:26:20;8.24;61.66
65824;SHT31;52585;47.566;19.056;2023-04-03T00:28:47;8.20;61.69
65824;SHT31;52585;47.566;19.056;2023-04-03T00:31:22;8.17;61.69
65824;SHT31;52585;47.566;19.056;2023-04-03T00:33:51;8.15;61.74
65824;SHT31;52585;47.566;19.056;2023-04-03T00:36:17;8.16;61.76
65824;SHT31;52585;47.566;19.056;2023-04-03T00:38:42;8.15;61.74
65824;SHT31;52585;47.566;19.056;2023-04-03T00:41:08;8.11;61.81
65824;SHT31;52585;47.566;19.056;2023-04-03T00:43:33;8.10;61.85
65824;SHT31;52585;47.566;19.056;2023-04-03T00:45:59;8.10;61.81
65824;SHT31;52585;47.566;19.056;2023-04-03T00:48:36;8.07;61.83
65824;SHT31;52585;47.566;19.056;2023-04-03T00:51:09;8.07;61.79
65824;SHT31;52585;47.566;19.056;2023-04-03T00:53:43;8.07;61.80
65824;SHT31;52585;47.566;19.056;2023-04-03T00:56:13;8.06;61.80
65824;SHT31;52585;47.566;19.056;2023-04-03T00:58:44;8.07;61.70
65824;SHT31;52585;47.566;19.056;2023-04-03T01:01:20;8.06;61.79
65824;SHT31;52585;47.566;19.056;2023-04-03T01:03:49;8.04;61.74
65824;SHT31;52585;47.566;19.056;2023-04-03T01:06:16;8.03;61.84
65824;SHT31;52585;47.566;19.056;2023-04-03T01:08:48;8.03;61.96
65824;SHT31;52585;47.566;19.056;2023-04-03T01:11:15;8.05;61.87
65824;SHT31;52585;47.566;19.056;2023-04-03T01:13:41;8.06;61.85
65824;SHT31;52585;47.566;19.056;2023-04-03T01:16:08;8.06;61.71
65824;SHT31;52585;47.566;19.056;2023-04-03T01:18:35;8.04;61.76
65824;SHT31;52585;47.566;19.056;2023-04-03T01:26:52;8.05;61.65
65824;SHT31;52585;47.566;19.056;2023-04-03T01:29:18;8.03;61.66
65824;SHT31;52585;47.566;19.056;2023-04-03T01:31:54;8.04;61.60
65824;SHT31;52585;47.566;19.056;2023-04-03T01:34:26;8.06;61.53
65824;SHT31;52585;47.566;19.056;2023-04-03T01:36:54;8.04;61.40
65824;SHT31;52585;47.566;19.056;2023-04-03T01:39:20;8.04;61.37
65824;SHT31;52585;47.566;19.056;2023-04-03T01:41:46;8.01;61.26
65824;SHT31;52585;47.566;19.056;2023-04-03T01:44:12;8.01;61.26
65824;SHT31;52585;47.566;19.056;2023-04-03T01:46:38;7.97;61.23
65824;SHT31;52585;47.566;19.056;2023-04-03T01:49:04;7.94;61.29
65824;SHT31;52585;47.566;19.056;2023-04-03T01:51:30;7.88;61.40
65824;SHT31;52585;47.566;19.056;2023-04-03T01:53:56;7.84;61.42
65824;SHT31;52585;47.566;19.056;2023-04-03T01:56:21;7.82;61.48
65824;SHT31;52585;47.566;19.056;2023-04-03T01:58:47;7.80;61.44
65824;SHT31;52585;47.566;19.056;2023-04-03T02:01:13;7.77;61.38
65824;SHT31;52585;47.566;19.056;2023-04-03T02:03:38;7.74;61.32
65824;SHT31;52585;47.566;19.056;2023-04-03T02:06:04;7.74;61.33
65824;SHT31;52585;47.566;19.056;2023-04-03T02:08:30;7.71;61.27
65824;SHT31;52585;47.566;19.056;2023-04-03T02:10:56;7.67;61.28
65824;SHT31;52585;47.566;19.056;2023-04-03T02:13:21;7.63;61.23
65824;SHT31;52585;47.566;19.056;2023-04-03T02:15:47;7.61;61.11
65824;SHT31;52585;47.566;19.056;2023-04-03T02:18:13;7.60;61.10
65824;SHT31;52585;47.566;19.056;2023-04-03T02:20:40;7.57;61.09
65824;SHT31;52585;47.566;19.056;2023-04-03T02:23:05;7.55;61.10
65824;SHT31;52585;47.566;19.056;2023-04-03T02:25:32;7.53;61.13
65824;SHT31;52585;47.566;19.056;2023-04-03T02:27:58;7.51;61.14
65824;SHT31;52585;47.566;19.056;2023-04-03T02:30:24;7.49;61.06
65824;SHT31;52585;47.566;19.056;2023-04-03T02:32:50;7.50;61.11
65824;SHT31;52585;47.566;19.056;2023-04-03T02:35:15;7.49;61.08
65824;SHT31;52585;47.566;19.056;2023-04-03T02:37:41;7.51;61.12
65824;SHT31;52585;47.566;19.056;2023-04-03T02:40:07;7.51;61.18
65824;SHT31;52585;47.566;19.056;2023-04-03T02:42:33;7.50;61.23
65824;SHT31;52585;47.566;19.056;2023-04-03T02:44:59;7.47;61.31
65824;SHT31;52585;47.566;19.056;2023-04-03T02:47:27;7.44;61.39
65824;SHT31;52585;47.566;19.056;2023-04-03T02:49:53;7.40;61.31
65824;SHT31;52585;47.566;19.056;2023-04-03T02:52:19;7.36;61.39
65824;SHT31;52585;47.566;19.056;2023-04-03T02:54:45;7.34;61.40
65824;SHT31;52585;47.566;19.056;2023-04-03T02:57:10;7.30;61.56
65824;SHT31;52585;47.566;19.056;2023-04-03T02:59:36;7.25;61.60
65824;SHT31;52585;47.566;19.056;2023-04-03T03:02:06;7.21;61.65
65824;SHT31;52585;47.566;19.056;2023-04-03T03:04:34;7.18;61.69
65824;SHT31;52585;47.566;19.056;2023-04-03T03:07:01;7.18;61.81
65824;SHT31;52585;47.566;19.056;2023-04-03T03:09:27;7.16;61.81
65824;SHT31;52585;47.566;19.056;2023-04-03T03:11:52;7.14;61.82
65824;SHT31;52585;47.566;19.056;2023-04-03T03:14:18;7.13;61.82
65824;SHT31;52585;47.566;19.056;2023-04-03T03:16:43;7.12;61.80
65824;SHT31;52585;47.566;19.056;2023-04-03T03:19:09;7.09;61.82
65824;SHT31;52585;47.566;19.056;2023-04-03T03:21:35;7.06;61.81
65824;SHT31;52585;47.566;19.056;2023-04-03T03:24:00;7.06;62.08
65824;SHT31;52585;47.566;19.056;2023-04-03T03:26:26;7.12;62.05
65824;SHT31;52585;47.566;19.056;2023-04-03T03:28:52;7.12;61.96
65824;SHT31;52585;47.566;19.056;2023-04-03T03:31:17;7.12;62.12
65824;SHT31;52585;47.566;19.056;2023-04-03T03:33:43;7.12;62.29
65824;SHT31;52585;47.566;19.056;2023-04-03T03:36:08;7.14;62.28
65824;SHT31;52585;47.566;19.056;2023-04-03T03:38:35;7.13;62.12
65824;SHT31;52585;47.566;19.056;2023-04-03T03:41:02;7.12;62.21
65824;SHT31;52585;47.566;19.056;2023-04-03T03:43:28;7.09;62.10
65824;SHT31;52585;47.566;19.056;2023-04-03T03:45:54;7.09;62.10
65824;SHT31;52585;47.566;19.056;2023-04-03T03:48:20;7.09;61.95
65824;SHT31;52585;47.566;19.056;2023-04-03T03:50:47;7.08;61.92
65824;SHT31;52585;47.566;19.056;2023-04-03T03:53:14;7.04;61.98
65824;SHT31;52585;47.566;19.056;2023-04-03T03:55:40;7.01;62.07
65824;SHT31;52585;47.566;19.056;2023-04-03T03:58:06;7.00;61.91
65824;SHT31;52585;47.566;19.056;2023-04-03T04:00:32;6.95;61.99
65824;SHT31;52585;47.566;19.056;2023-04-03T04:02:58;6.92;61.96
65824;SHT31;52585;47.566;19.056;2023-04-03T04:05:24;6.89;62.11
65824;SHT31;52585;47.566;19.056;2023-04-03T04:07:49;6.86;62.08
65824;SHT31;52585;47.566;19.056;2023-04-03T04:10:16;6.82;62.11
65824;SHT31;52585;47.566;19.056;2023-04-03T04:12:41;6.76;62.18
65824;SHT31;52585;47.566;19.056;2023-04-03T04:15:07;6.68;62.33
65824;SHT31;52585;47.566;19.056;2023-04-03T04:17:34;6.63;62.42
65824;SHT31;52585;47.566;19.056;2023-04-03T04:20:00;6.57;62.56
65824;SHT31;52585;47.566;19.056;2023-04-03T04:22:27;6.55;62.62
65824;SHT31;52585;47.566;19.056;2023-04-03T04:24:53;6.47;62.68
65824;SHT31;52585;47.566;19.056;2023-04-03T04:27:19;6.42;62.88
65824;SHT31;52585;47.566;19.056;2023-04-03T04:29:44;6.34;63.07
65824;SHT31;52585;47.566;19.056;2023-04-03T04:32:10;6.32;63.01
65824;SHT31;52585;47.566;19.056;2023-04-03T04:34:35;6.25;63.18
65824;SHT31;52585;47.566;19.056;2023-04-03T04:37:01;6.21;63.44
65824;SHT31;52585;47.566;19.056;2023-04-03T04:39:26;6.19;63.71
65824;SHT31;52585;47.566;19.056;2023-04-03T04:41:52;6.19;63.83
65824;SHT31;52585;47.566;19.056;2023-04-03T04:44:18;6.23;63.86
65824;SHT31;52585;47.566;19.056;2023-04-03T04:46:43;6.24;63.85
65824;SHT31;52585;47.566;19.056;2023-04-03T04:49:09;6.25;63.66
65824;SHT31;52585;47.566;19.056;2023-04-03T04:51:35;6.25;63.49
65824;SHT31;52585;47.566;19.056;2023-04-03T04:54:00;6.24;63.58
65824;SHT31;52585;47.566;19.056;2023-04-03T04:56:26;6.24;63.57
65824;SHT31;52585;47.566;19.056;2023-04-03T04:58:51;6.21;63.53
65824;SHT31;52585;47.566;19.056;2023-04-03T05:01:17;6.19;63.59
65824;SHT31;52585;47.566;19.056;2023-04-03T05:03:43;6.18;63.79
65824;SHT31;52585;47.566;19.056;2023-04-03T05:06:09;6.20;63.63
65824;SHT31;52585;47.566;19.056;2023-04-03T05:08:35;6.22;63.54
65824;SHT31;52585;47.566;19.056;2023-04-03T05:11:01;6.21;63.60
65824;SHT31;52585;47.566;19.056;2023-04-03T05:13:26;6.18;63.73
65824;SHT31;52585;47.566;19.056;2023-04-03T05:15:52;6.16;63.84
65824;SHT31;52585;47.566;19.056;2023-04-03T05:18:17;6.16;63.89
65824;SHT31;52585;47.566;19.056;2023-04-03T05:20:43;6.14;64.11
65824;SHT31;52585;47.566;19.056;2023-04-03T05:23:09;6.15;63.99
65824;SHT31;52585;47.566;19.056;2023-04-03T05:25:39;6.16;64.25
65824;SHT31;52585;47.566;19.056;2023-04-03T05:28:05;6.18;64.33
65824;SHT31;52585;47.566;19.056;2023-04-03T05:30:31;6.17;64.33
65824;SHT31;52585;47.566;19.056;2023-04-03T05:32:58;6.15;64.51
65824;SHT31;52585;47.566;19.056;2023-04-03T05:35:24;6.15;64.58
65824;SHT31;52585;47.566;19.056;2023-04-03T05:37:50;6.14;64.69
65824;SHT31;52585;47.566;19.056;2023-04-03T05:40:16;6.18;64.50
65824;SHT31;52585;47.566;19.056;2023-04-03T05:42:43;6.20;64.44
65824;SHT31;52585;47.566;19.056;2023-04-03T05:45:09;6.21;64.21
65824;SHT31;52585;47.566;19.056;2023-04-03T05:47:35;6.21;64.29
65824;SHT31;52585;47.566;19.056;2023-04-03T05:50:01;6.20;64.31
65824;SHT31;52585;47.566;19.056;2023-04-03T05:52:27;6.22;64.36
65824;SHT31;52585;47.566;19.056;2023-04-03T05:55:00;6.27;64.50
65824;SHT31;52585;47.566;19.056;2023-04-03T05:57:26;6.33;64.36
65824;SHT31;52585;47.566;19.056;2023-04-03T05:59:51;6.37;64.21
65824;SHT31;52585;47.566;19.056;2023-04-03T06:02:18;6.39;64.19
65824;SHT31;52585;47.566;19.056;2023-04-03T06:04:47;6.42;64.30
65824;SHT31;52585;47.566;19.056;2023-04-03T06:07:14;6.50;64.38
65824;SHT31;52585;47.566;19.056;2023-04-03T06:09:43;6.57;64.12
65824;SHT31;52585;47.566;19.056;2023-04-03T06:12:09;6.63;64.42
65824;SHT31;52585;47.566;19.056;2023-04-03T06:14:36;6.73;64.37
65824;SHT31;52585;47.566;19.056;2023-04-03T06:17:02;6.82;64.38
65824;SHT31;52585;47.566;19.056;2023-04-03T06:19:29;6.93;64.35
65824;SHT31;52585;47.566;19.056;2023-04-03T06:21:55;7.02;64.02
65824;SHT31;52585;47.566;19.056;2023-04-03T06:24:21;7.08;63.84
65824;SHT31;52585;47.566;19.056;2023-04-03T06:26:49;7.16;63.35
65824;SHT31;52585;47.566;19.056;2023-04-03T06:29:16;7.26;62.97
65824;SHT31;52585;47.566;19.056;2023-04-03T06:31:43;7.38;62.89
65824;SHT31;52585;47.566;19.056;2023-04-03T06:34:09;7.49;62.32
65824;SHT31;52585;47.566;19.056;2023-04-03T06:36:36;7.57;62.10
65824;SHT31;52585;47.566;19.056;2023-04-03T06:39:02;7.65;61.84
65824;SHT31;52585;47.566;19.056;2023-04-03T06:41:28;7.71;61.38
65824;SHT31;52585;47.566;19.056;2023-04-03T06:43:54;7.79;61.23
65824;SHT31;52585;47.566;19.056;2023-04-03T06:46:22;7.90;60.86
65824;SHT31;52585;47.566;19.056;2023-04-03T06:48:49;7.99;60.73
65824;SHT31;52585;47.566;19.056;2023-04-03T06:53:47;8.16;60.19
65824;SHT31;52585;47.566;19.056;2023-04-03T06:56:16;8.26;60.19
65824;SHT31;52585;47.566;19.056;2023-04-03T06:58:42;8.35;60.19
65824;SHT31;52585;47.566;19.056;2023-04-03T07:01:10;8.42;59.73
65824;SHT31;52585;47.566;19.056;2023-04-03T07:03:37;8.47;59.72
65824;SHT31;52585;47.566;19.056;2023-04-03T07:06:04;8.51;59.65
65824;SHT31;52585;47.566;19.056;2023-04-03T07:08:32;8.53;59.34
65824;SHT31;52585;47.566;19.056;2023-04-03T07:10:58;8.58;59.27
65824;SHT31;52585;47.566;19.056;2023-04-03T07:13:24;8.60;58.80
65824;SHT31;52585;47.566;19.056;2023-04-03T07:15:50;8.62;58.55
65824;SHT31;52585;47.566;19.056;2023-04-03T07:18:16;8.64;58.66
65824;SHT31;52585;47.566;19.056;2023-04-03T07:20:44;8.66;58.66
65824;SHT31;52585;47.566;19.056;2023-04-03T07:23:10;8.68;58.53
65824;SHT31;52585;47.566;19.056;2023-04-03T07:25:36;8.71;58.43
65824;SHT31;52585;47.566;19.056;2023-04-03T07:28:08;8.71;58.27
65824;SHT31;52585;47.566;19.056;2023-04-03T07:30:33;8.73;58.02
65824;SHT31;52585;47.566;19.056;2023-04-03T07:32:59;8.78;58.05
65824;SHT31;52585;47.566;19.056;2023-04-03T07:35:25;8.82;57.72
65824;SHT31;52585;47.566;19.056;2023-04-03T07:37:52;8.84;58.25
65824;SHT31;52585;47.566;19.056;2023-04-03T07:40:18;8.84;57.64
65824;SHT31;52585;47.566;19.056;2023-04-03T07:42:44;8.82;57.40
65824;SHT31;52585;47.566;19.056;2023-04-03T07:45:10;8.82;56.98
65824;SHT31;52585;47.566;19.056;2023-04-03T07:47:35;8.87;57.38
65824;SHT31;52585;47.566;19.056;2023-04-03T07:50:01;8.93;57.56
65824;SHT31;52585;47.566;19.056;2023-04-03T07:52:27;8.97;56.79
65824;SHT31;52585;47.566;19.056;2023-04-03T07:54:53;9.02;57.09
65824;SHT31;52585;47.566;19.056;2023-04-03T07:57:18;9.06;57.02
65824;SHT31;52585;47.566;19.056;2023-04-03T07:59:44;9.10;56.34
65824;SHT31;52585;47.566;19.056;2023-04-03T08:02:10;9.15;56.50
65824;SHT31;52585;47.566;19.056;2023-04-03T08:04:36;9.22;56.50
65824;SHT31;52585;47.566;19.056;2023-04-03T08:07:01;9.27;56.48
65824;SHT31;52585;47.566;19.056;2023-04-03T08:09:27;9.32;56.39
65824;SHT31;52585;47.566;19.056;2023-04-03T08:11:52;9.38;56.05
65824;SHT31;52585;47.566;19.056;2023-04-03T08:14:18;9.47;56.18
65824;SHT31;52585;47.566;19.056;2023-04-03T08:16:46;9.51;55.41
65824;SHT31;52585;47.566;19.056;2023-04-03T08:19:13;9.52;55.46
65824;SHT31;52585;47.566;19.056;2023-04-03T08:21:41;9.54;54.90
65824;SHT31;52585;47.566;19.056;2023-04-03T08:24:07;9.56;54.56
65824;SHT31;52585;47.566;19.056;2023-04-03T08:26:35;9.60;54.72
65824;SHT31;52585;47.566;19.056;2023-04-03T08:29:01;9.68;54.50
65824;SHT31;52585;47.566;19.056;2023-04-03T08:31:27;9.73;54.67
65824;SHT31;52585;47.566;19.056;2023-04-03T08:33:53;9.80;54.92
65824;SHT31;52585;47.566;19.056;2023-04-03T08:36:20;9.85;54.84
65824;SHT31;52585;47.566;19.056;2023-04-03T08:38:52;9.86;54.34
65824;SHT31;52585;47.566;19.056;2023-04-03T08:49:55;9.95;54.21
65824;SHT31;52585;47.566;19.056;2023-04-03T08:55:21;9.94;53.55
65824;SHT31;52585;47.566;19.056;2023-04-03T08:58:26;9.99;53.58
65824;SHT31;52585;47.566;19.056;2023-04-03T09:01:03;10.06;54.00
65824;SHT31;52585;47.566;19.056;2023-04-03T09:03:50;10.14;54.15
65824;SHT31;52585;47.566;19.056;2023-04-03T09:12:18;10.29;53.55
65824;SHT31;52585;47.566;19.056;2023-04-03T09:17:49;10.39;51.90
65824;SHT31;52585;47.566;19.056;2023-04-03T09:20:26;10.47;52.25
65824;SHT31;52585;47.566;19.056;2023-04-03T09:23:39;10.60;52.45
65824;SHT31;52585;47.566;19.056;2023-04-03T09:26:19;10.69;52.50
65824;SHT31;52585;47.566;19.056;2023-04-03T09:28:54;10.78;51.76
65824;SHT31;52585;47.566;19.056;2023-04-03T09:31:38;10.88;52.47
65824;SHT31;52585;47.566;19.056;2023-04-03T09:34:13;11.00;51.72
65824;SHT31;52585;47.566;19.056;2023-04-03T09:36:52;11.08;51.91
65824;SHT31;52585;47.566;19.056;2023-04-03T09:39:24;11.06;51.37
65824;SHT31;52585;47.566;19.056;2023-04-03T09:41:59;11.01;51.33
65824;SHT31;52585;47.566;19.056;2023-04-03T09:44:30;10.99;51.27
65824;SHT31;52585;47.566;19.056;2023-04-03T09:47:35;10.99;51.58
65824;SHT31;52585;47.566;19.056;2023-04-03T09:52:40;10.89;50.53
65824;SHT31;52585;47.566;19.056;2023-04-03T09:55:15;10.88;50.97
65824;SHT31;52585;47.566;19.056;2023-04-03T09:57:43;10.90;51.11
65824;SHT31;52585;47.566;19.056;2023-04-03T10:00:19;10.91;51.19
65824;SHT31;52585;47.566;19.056;2023-04-03T10:02:54;10.90;51.02
65824;SHT31;52585;47.566;19.056;2023-04-03T10:05:27;10.87;50.40
65824;SHT31;52585;47.566;19.056;2023-04-03T10:10:48;10.92;50.42
65824;SHT31;52585;47.566;19.056;2023-04-03T10:13:51;10.95;50.84
65824;SHT31;52585;47.566;19.056;2023-04-03T10:16:23;10.98;50.87
65824;SHT31;52585;47.566;19.056;2023-04-03T10:19:09;10.99;50.55
65824;SHT31;52585;47.566;19.056;2023-04-03T10:22:00;10.99;50.32
65824;SHT31;52585;47.566;19.056;2023-04-03T10:24:52;10.99;50.47
65824;SHT31;52585;47.566;19.056;2023-04-03T10:36:28;10.96;50.06
65824;SHT31;52585;47.566;19.056;2023-04-03T10:45:19;10.99;49.46
65824;SHT31;52585;47.566;19.056;2023-04-03T10:48:24;11.02;49.80
65824;SHT31;52585;47.566;19.056;2023-04-03T11:01:48;11.09;49.36
65824;SHT31;52585;47.566;19.056;2023-04-03T11:04:21;11.08;49.25
65824;SHT31;52585;47.566;19.056;2023-04-03T11:07:14;11.11;49.43
65824;SHT31;52585;47.566;19.056;2023-04-03T11:10:02;11.11;49.64
65824;SHT31;52585;47.566;19.056;2023-04-03T11:12:59;11.13;49.34
65824;SHT31;52585;47.566;19.056;2023-04-03T11:15:38;11.12;49.16
65824;SHT31;52585;47.566;19.056;2023-04-03T11:18:06;11.09;48.99
65824;SHT31;52585;47.566;19.056;2023-04-03T11:20:41;11.09;49.21
65824;SHT31;52585;47.566;19.056;2023-04-03T11:23:26;11.11;49.53
65824;SHT31;52585;47.566;19.056;2023-04-03T11:25:59;11.15;49.58
65824;SHT31;52585;47.566;19.056;2023-04-03T11:28:38;11.18;49.40
65824;SHT31;52585;47.566;19.056;2023-04-03T11:34:37;11.24;49.28
65824;SHT31;52585;47.566;19.056;2023-04-03T11:39:58;11.25;49.48
65824;SHT31;52585;47.566;19.056;2023-04-03T11:45:59;11.25;49.41
65824;SHT31;52585;47.566;19.056;2023-04-03T11:53:42;11.22;49.18
65824;SHT31;52585;47.566;19.056;2023-04-03T12:01:55;11.26;48.62
65824;SHT31;52585;47.566;19.056;2023-04-03T12:04:26;11.29;48.90
65824;SHT31;52585;47.566;19.056;2023-04-03T12:07:11;11.26;48.32
65824;SHT31;52585;47.566;19.056;2023-04-03T12:22:04;11.26;47.90
65824;SHT31;52585;47.566;19.056;2023-04-03T12:32:43;11.25;48.13
65824;SHT31;52585;47.566;19.056;2023-04-03T12:46:23;11.17;47.66
65824;SHT31;52585;47.566;19.056;2023-04-03T12:48:58;11.15;47.47
65824;SHT31;52585;47.566;19.056;2023-04-03T12:51:34;11.19;47.58
65824;SHT31;52585;47.566;19.056;2023-04-03T12:54:14;11.22;47.74
65824;SHT31;52585;47.566;19.056;2023-04-03T12:56:49;11.23;47.92
65824;SHT31;52585;47.566;19.056;2023-04-03T13:01:57;11.28;47.74
65824;SHT31;52585;47.566;19.056;2023-04-03T13:04:27;11.27;47.66
65824;SHT31;52585;47.566;19.056;2023-04-03T13:06:55;11.26;47.02
65824;SHT31;52585;47.566;19.056;2023-04-03T13:09:23;11.30;47.14
65824;SHT31;52585;47.566;19.056;2023-04-03T13:14:40;11.35;47.40
65824;SHT31;52585;47.566;19.056;2023-04-03T13:17:16;11.35;46.82
65824;SHT31;52585;47.566;19.056;2023-04-03T13:19:43;11.37;47.23
65824;SHT31;52585;47.566;19.056;2023-04-03T13:24:59;11.40;46.73
65824;SHT31;52585;47.566;19.056;2023-04-03T13:27:31;11.45;47.08
65824;SHT31;52585;47.566;19.056;2023-04-03T13:29:58;11.48;46.75
65824;SHT31;52585;47.566;19.056;2023-04-03T13:32:27;11.48;46.42
65824;SHT31;52585;47.566;19.056;2023-04-03T13:34:56;11.52;46.71
65824;SHT31;52585;47.566;19.056;2023-04-03T13:39:59;11.57;46.62
65824;SHT31;52585;47.566;19.056;2023-04-03T13:42:32;11.59;46.47
65824;SHT31;52585;47.566;19.056;2023-04-03T13:47:52;11.66;46.82
65824;SHT31;52585;47.566;19.056;2023-04-03T13:50:31;11.67;46.27
65824;SHT31;52585;47.566;19.056;2023-04-03T13:53:08;11.70;46.60
65824;SHT31;52585;47.566;19.056;2023-04-03T13:55:52;11.70;46.55
65824;SHT31;52585;47.566;19.056;2023-04-03T13:58:28;11.64;46.27
65824;SHT31;52585;47.566;19.056;2023-04-03T14:01:07;11.61;45.70
65824;SHT31;52585;47.566;19.056;2023-04-03T14:04:01;11.61;45.87
65824;SHT31;52585;47.566;19.056;2023-04-03T14:06:38;11.65;46.38
65824;SHT31;52585;47.566;19.056;2023-04-03T14:09:04;11.66;46.03
65824;SHT31;52585;47.566;19.056;2023-04-03T14:11:30;11.66;45.91
65824;SHT31;52585;47.566;19.056;2023-04-03T14:13:57;11.68;46.11
65824;SHT31;52585;47.566;19.056;2023-04-03T14:16:31;11.70;46.40
65824;SHT31;52585;47.566;19.056;2023-04-03T14:19:03;11.67;45.92
65824;SHT31;52585;47.566;19.056;2023-04-03T14:21:29;11.64;45.62
65824;SHT31;52585;47.566;19.056;2023-04-03T14:23:55;11.66;46.14
65824;SHT31;52585;47.566;19.056;2023-04-03T14:26:22;11.66;45.46
65824;SHT31;52585;47.566;19.056;2023-04-03T14:28:52;11.66;45.83
65824;SHT31;52585;47.566;19.056;2023-04-03T14:31:20;11.66;46.04
65824;SHT31;52585;47.566;19.056;2023-04-03T14:33:47;11.65;45.92
65824;SHT31;52585;47.566;19.056;2023-04-03T14:36:14;11.67;46.22
65824;SHT31;52585;47.566;19.056;2023-04-03T14:38:46;11.64;45.57
65824;SHT31;52585;47.566;19.056;2023-04-03T14:41:13;11.64;46.14
65824;SHT31;52585;47.566;19.056;2023-04-03T14:43:42;11.60;45.74
65824;SHT31;52585;47.566;19.056;2023-04-03T14:46:12;11.57;45.40
65824;SHT31;52585;47.566;19.056;2023-04-03T14:48:43;11.56;45.30
65824;SHT31;52585;47.566;19.056;2023-04-03T14:51:13;11.58;45.71
65824;SHT31;52585;47.566;19.056;2023-04-03T14:53:40;11.60;45.94
65824;SHT31;52585;47.566;19.056;2023-04-03T14:56:13;11.60;45.80
65824;SHT31;52585;47.566;19.056;2023-04-03T14:58:42;11.57;45.67
65824;SHT31;52585;47.566;19.056;2023-04-03T15:01:11;11.58;45.92
65824;SHT31;52585;47.566;19.056;2023-04-03T15:03:39;11.59;45.98
65824;SHT31;52585;47.566;19.056;2023-04-03T15:06:04;11.62;45.85
65824;SHT31;52585;47.566;19.056;2023-04-03T15:08:30;11.64;46.26
65824;SHT31;52585;47.566;19.056;2023-04-03T15:10:56;11.65;46.65
65824;SHT31;52585;47.566;19.056;2023-04-03T15:13:23;11.66;46.66
65824;SHT31;52585;47.566;19.056;2023-04-03T15:15:50;11.66;46.81
65824;SHT31;52585;47.566;19.056;2023-04-03T15:18:19;11.65;47.04
65824;SHT31;52585;47.566;19.056;2023-04-03T15:20:49;11.59;47.16
65824;SHT31;52585;47.566;19.056;2023-04-03T15:23:15;11.53;47.12
65824;SHT31;52585;47.566;19.056;2023-04-03T15:25:46;11.47;47.28
65824;SHT31;52585;47.566;19.056;2023-04-03T15:28:18;11.39;47.41
65824;SHT31;52585;47.566;19.056;2023-04-03T15:30:48;11.33;47.46
65824;SHT31;52585;47.566;19.056;2023-04-03T15:33:14;11.28;47.75
65824;SHT31;52585;47.566;19.056;2023-04-03T15:35:41;11.23;47.73
65824;SHT31;52585;47.566;19.056;2023-04-03T15:38:07;11.16;47.68
65824;SHT31;52585;47.566;19.056;2023-04-03T15:40:33;11.10;47.61
65824;SHT31;52585;47.566;19.056;2023-04-03T15:42:59;11.04;47.47
65824;SHT31;52585;47.566;19.056;2023-04-03T15:45:25;10.95;47.52
65824;SHT31;52585;47.566;19.056;2023-04-03T15:47:54;10.89;47.67
65824;SHT31;52585;47.566;19.056;2023-04-03T15:50:20;10.82;47.70
65824;SHT31;52585;47.566;19.056;2023-04-03T15:52:48;10.78;47.69
65824;SHT31;52585;47.566;19.056;2023-04-03T15:55:19;10.76;47.73
65824;SHT31;52585;47.566;19.056;2023-04-03T15:57:52;10.74;47.60
65824;SHT31;52585;47.566;19.056;2023-04-03T16:00:18;10.72;47.41
65824;SHT31;52585;47.566;19.056;2023-04-03T16:02:46;10.66;47.04
65824;SHT31;52585;47.566;19.056;2023-04-03T16:05:15;10.64;46.88
65824;SHT31;52585;47.566;19.056;2023-04-03T16:07:43;10.64;46.69
65824;SHT31;52585;47.566;19.056;2023-04-03T16:10:11;10.66;46.53
65824;SHT31;52585;47.566;19.056;2023-04-03T16:12:38;10.67;46.60
65824;SHT31;52585;47.566;19.056;2023-04-03T16:15:05;10.66;46.28
65824;SHT31;52585;47.566;19.056;2023-04-03T16:17:32;10.65;46.32
65824;SHT31;52585;47.566;19.056;2023-04-03T16:20:02;10.59;46.26
65824;SHT31;52585;47.566;19.056;2023-04-03T16:22:31;10.53;46.03
65824;SHT31;52585;47.566;19.056;2023-04-03T16:24:58;10.51;45.92
65824;SHT31;52585;47.566;19.056;2023-04-03T16:27:23;10.47;45.92
65824;SHT31;52585;47.566;19.056;2023-04-03T16:29:55;10.43;45.74
65824;SHT31;52585;47.566;19.056;2023-04-03T16:32:22;10.42;45.90
65824;SHT31;52585;47.566;19.056;2023-04-03T16:34:51;10.35;45.52
65824;SHT31;52585;47.566;19.056;2023-04-03T16:37:17;10.28;45.68
65824;SHT31;52585;47.566;19.056;2023-04-03T16:39:43;10.23;45.56
65824;SHT31;52585;47.566;19.056;2023-04-03T16:42:09;10.19;45.54
65824;SHT31;52585;47.566;19.056;2023-04-03T16:44:36;10.17;45.68
65824;SHT31;52585;47.566;19.056;2023-04-03T16:47:02;10.08;45.07
65824;SHT31;52585;47.566;19.056;2023-04-03T16:49:28;9.97;44.87
65824;SHT31;52585;47.566;19.056;2023-04-03T16:51:58;9.94;45.09
65824;SHT31;52585;47.566;19.056;2023-04-03T16:54:25;9.88;45.17
65824;SHT31;52585;47.566;19.056;2023-04-03T16:56:52;9.81;44.82
65824;SHT31;52585;47.566;19.056;2023-04-03T16:59:17;9.72;44.52
65824;SHT31;52585;47.566;19.056;2023-04-03T17:01:43;9.65;44.61
65824;SHT31;52585;47.566;19.056;2023-04-03T17:04:09;9.62;44.82
65824;SHT31;52585;47.566;19.056;2023-04-03T17:06:35;9.61;44.84
65824;SHT31;52585;47.566;19.056;2023-04-03T17:09:02;9.61;45.19
65824;SHT31;52585;47.566;19.056;2023-04-03T17:11:28;9.61;45.36
65824;SHT31;52585;47.566;19.056;2023-04-03T17:13:55;9.57;45.31
65824;SHT31;52585;47.566;19.056;2023-04-03T17:16:21;9.54;45.35
65824;SHT31;52585;47.566;19.056;2023-04-03T17:18:49;9.52;45.27
65824;SHT31;52585;47.566;19.056;2023-04-03T17:21:16;9.50;45.12
65824;SHT31;52585;47.566;19.056;2023-04-03T17:23:43;9.46;45.11
65824;SHT31;52585;47.566;19.056;2023-04-03T17:26:23;9.40;45.07
65824;SHT31;52585;47.566;19.056;2023-04-03T17:28:50;9.35;45.06
65824;SHT31;52585;47.566;19.056;2023-04-03T17:31:17;9.32;45.09
65824;SHT31;52585;47.566;19.056;2023-04-03T17:33:44;9.29;45.09
65824;SHT31;52585;47.566;19.056;2023-04-03T17:36:10;9.27;45.39
65824;SHT31;52585;47.566;19.056;2023-04-03T17:38:36;9.23;45.34
65824;SHT31;52585;47.566;19.056;2023-04-03T17:41:03;9.25;46.53
65824;SHT31;52585;47.566;19.056;2023-04-03T17:43:32;9.26;46.38